sensor_id;sensor_type;location;lat;lon;timestamp;pressure;altitude;pressure_sealevel;temperature;humidity
19736;BME280;32064;49.310;8.646;2023-04-09T00:02:11;101304.31;;;12.97;55.23
19736;BME280;32064;49.310;8.646;2023-04-09T00:04:36;101304.31;;;12.97;56.07
19736;BME280;32064;49.310;8.646;2023-04-09T00:07:01;101300.81;;;12.97;55.56
19736;BME280;32064;49.310;8.646;2023-04-09T00:09:27;101295.53;;;12.97;55.28
19736;BME280;32064;49.310;8.646;2023-04-09T00:11:52;101292.22;;;12.93;56.18
19736;BME280;32064;49.310;8.646;2023-04-09T00:14:18;101298.47;;;12.92;56.30
19736;BME280;32064;49.310;8.646;2023-04-09T00:16:43;101297.63;;;12.92;55.23
19736;BME280;32064;49.310;8.646;2023-04-09T00:19:08;101290.63;;;12.91;54.81
19736;BME280;32064;49.310;8.646;2023-04-09T00:21:34;101292.44;;;12.90;55.23
19736;BME280;32064;49.310;8.646;2023-04-09T00:23:59;101290.19;;;12.84;55.71
19736;BME280;32064;49.310;8.646;2023-04-09T00:26:25;101287.47;;;12.86;56.34
19736;BME280;32064;49.310;8.646;2023-04-09T00:28:50;101286.81;;;12.82;55.25
19736;BME280;32064;49.310;8.646;2023-04-09T00:31:16;101286.81;;;12.82;55.35
19736;BME280;32064;49.310;8.646;2023-04-09T00:33:41;101283.53;;;12.78;56.60
19736;BME280;32064;49.310;8.646;2023-04-09T00:36:06;101280.31;;;12.73;55.61
19736;BME280;32064;49.310;8.646;2023-04-09T00:38:32;101279.69;;;12.70;56.56
19736;BME280;32064;49.310;8.646;2023-04-09T00:40:58;101275.25;;;12.70;55.96
19736;BME280;32064;49.310;8.646;2023-04-09T00:43:23;101277.88;;;12.70;55.62
19736;BME280;32064;49.310;8.646;2023-04-09T00:45:48;101273.84;;;12.65;55.84
19736;BME280;32064;49.310;8.646;2023-04-09T00:48:14;101276.63;;;12.63;56.09
19736;BME280;32064;49.310;8.646;2023-04-09T00:50:41;101273.22;;;12.61;57.18
19736;BME280;32064;49.310;8.646;2023-04-09T00:53:06;101275.94;;;12.59;55.71
19736;BME280;32064;49.310;8.646;2023-04-09T00:55:33;101281.41;;;12.56;57.10
19736;BME280;32064;49.310;8.646;2023-04-09T00:57:59;101278.50;;;12.61;56.25
19736;BME280;32064;49.310;8.646;2023-04-09T01:00:25;101283.13;;;12.57;56.81
19736;BME280;32064;49.310;8.646;2023-04-09T01:02:52;101283.13;;;12.57;57.59
19736;BME280;32064;49.310;8.646;2023-04-09T01:05:20;101280.94;;;12.64;55.91
19736;BME280;32064;49.310;8.646;2023-04-09T01:15:44;101279.72;;;12.55;56.67
19736;BME280;32064;49.310;8.646;2023-04-09T01:18:21;101285.78;;;12.57;57.67
19736;BME280;32064;49.310;8.646;2023-04-09T01:21:00;101279.94;;;12.52;56.58
19736;BME280;32064;49.310;8.646;2023-04-09T01:27:07;101273.53;;;12.42;57.74
19736;BME280;32064;49.310;8.646;2023-04-09T01:29:37;101271.84;;;12.41;56.29
19736;BME280;32064;49.310;8.646;2023-04-09T01:32:04;101270.16;;;12.40;57.80
19736;BME280;32064;49.310;8.646;2023-04-09T01:34:32;101275.97;;;12.45;57.05
19736;BME280;32064;49.310;8.646;2023-04-09T01:36:59;101271.94;;;12.40;56.44
19736;BME280;32064;49.310;8.646;2023-04-09T01:39:27;101274.69;;;12.38;57.16
19736;BME280;32064;49.310;8.646;2023-04-09T01:41:54;101278.09;;;12.40;56.58
19736;BME280;32064;49.310;8.646;2023-04-09T01:44:20;101280.72;;;12.40;57.24
19736;BME280;32064;49.310;8.646;2023-04-09T01:46:49;101274.03;;;12.34;57.82
19736;BME280;32064;49.310;8.646;2023-04-09T01:49:15;101269.06;;;12.30;56.66
19736;BME280;32064;49.310;8.646;2023-04-09T01:51:42;101270.84;;;12.29;56.54
19736;BME280;32064;49.310;8.646;2023-04-09T01:54:08;101277.91;;;12.29;57.12
19736;BME280;32064;49.310;8.646;2023-04-09T01:56:43;101274.53;;;12.27;56.91
19736;BME280;32064;49.310;8.646;2023-04-09T01:59:09;101282.53;;;12.25;58.15
19736;BME280;32064;49.310;8.646;2023-04-09T02:01:40;101276.88;;;12.31;58.18
19736;BME280;32064;49.310;8.646;2023-04-09T02:04:19;101270.72;;;12.31;58.54
19736;BME280;32064;49.310;8.646;2023-04-09T02:06:58;101271.50;;;12.33;56.87
19736;BME280;32064;49.310;8.646;2023-04-09T02:09:28;101278.44;;;12.34;57.45
19736;BME280;32064;49.310;8.646;2023-04-09T02:11:59;101273.38;;;12.31;58.01
19736;BME280;32064;49.310;8.646;2023-04-09T02:14:27;101274.88;;;12.35;56.74
19736;BME280;32064;49.310;8.646;2023-04-09T02:16:53;101278.56;;;12.32;58.56
19736;BME280;32064;49.310;8.646;2023-04-09T02:19:18;101276.75;;;12.33;57.12
19736;BME280;32064;49.310;8.646;2023-04-09T02:21:45;101284.78;;;12.31;56.88
19736;BME280;32064;49.310;8.646;2023-04-09T02:24:10;101286.94;;;12.25;57.62
19736;BME280;32064;49.310;8.646;2023-04-09T02:26:35;101278.97;;;12.26;57.62
19736;BME280;32064;49.310;8.646;2023-04-09T02:29:01;101283.28;;;12.27;58.64
19736;BME280;32064;49.310;8.646;2023-04-09T02:31:26;101280.56;;;12.29;57.46
19736;BME280;32064;49.310;8.646;2023-04-09T02:33:52;101277.03;;;12.28;57.92
19736;BME280;32064;49.310;8.646;2023-04-09T02:36:18;101281.69;;;12.25;57.30
19736;BME280;32064;49.310;8.646;2023-04-09T02:38:44;101271.97;;;12.25;57.27
19736;BME280;32064;49.310;8.646;2023-04-09T02:41:09;101278.28;;;12.23;57.78
19736;BME280;32064;49.310;8.646;2023-04-09T02:43:35;101278.19;;;12.24;57.17
19736;BME280;32064;49.310;8.646;2023-04-09T02:46:00;101276.41;;;12.25;57.27
19736;BME280;32064;49.310;8.646;2023-04-09T02:48:26;101272.16;;;12.22;57.34
19736;BME280;32064;49.310;8.646;2023-04-09T02:50:51;101272.47;;;12.18;58.01
19736;BME280;32064;49.310;8.646;2023-04-09T02:53:16;101272.56;;;12.16;58.54
19736;BME280;32064;49.310;8.646;2023-04-09T02:55:42;101276.16;;;12.15;59.21
19736;BME280;32064;49.310;8.646;2023-04-09T02:58:07;101277.38;;;12.09;58.01
19736;BME280;32064;49.310;8.646;2023-04-09T03:00:32;101277.25;;;12.11;58.73
19736;BME280;32064;49.310;8.646;2023-04-09T03:02:58;101280.75;;;12.11;59.24
19736;BME280;32064;49.310;8.646;2023-04-09T03:05:24;101271.16;;;12.10;59.22
19736;BME280;32064;49.310;8.646;2023-04-09T03:07:49;101270.94;;;12.13;57.38
19736;BME280;32064;49.310;8.646;2023-04-09T03:10:15;101271.72;;;12.16;57.64
19736;BME280;32064;49.310;8.646;2023-04-09T03:12:40;101264.00;;;12.12;58.47
19736;BME280;32064;49.310;8.646;2023-04-09T03:15:09;101266.50;;;12.14;59.41
19736;BME280;32064;49.310;8.646;2023-04-09T03:17:35;101269.25;;;12.12;58.96
19736;BME280;32064;49.310;8.646;2023-04-09T03:20:00;101270.94;;;12.13;59.08
19736;BME280;32064;49.310;8.646;2023-04-09T03:22:25;101266.63;;;12.12;58.24
19736;BME280;32064;49.310;8.646;2023-04-09T03:24:51;101271.91;;;12.12;59.75
19736;BME280;32064;49.310;8.646;2023-04-09T03:27:16;101269.47;;;12.09;59.85
19736;BME280;32064;49.310;8.646;2023-04-09T03:29:42;101261.53;;;12.09;58.66
19736;BME280;32064;49.310;8.646;2023-04-09T03:32:07;101269.34;;;12.11;58.63
19736;BME280;32064;49.310;8.646;2023-04-09T03:34:32;101271.06;;;12.12;58.28
19736;BME280;32064;49.310;8.646;2023-04-09T03:36:58;101266.63;;;12.12;57.89
19736;BME280;32064;49.310;8.646;2023-04-09T03:39:23;101271.06;;;12.12;58.52
19736;BME280;32064;49.310;8.646;2023-04-09T03:41:48;101269.47;;;12.09;60.01
19736;BME280;32064;49.310;8.646;2023-04-09T03:44:14;101263.34;;;12.09;59.84
19736;BME280;32064;49.310;8.646;2023-04-09T03:46:40;101267.09;;;12.05;59.18
19736;BME280;32064;49.310;8.646;2023-04-09T03:49:05;101268.81;;;12.06;59.58
19736;BME280;32064;49.310;8.646;2023-04-09T03:51:30;101262.84;;;12.02;58.91
19736;BME280;32064;49.310;8.646;2023-04-09T03:53:56;101260.13;;;12.04;60.16
19736;BME280;32064;49.310;8.646;2023-04-09T03:56:21;101272.56;;;12.02;58.81
19736;BME280;32064;49.310;8.646;2023-04-09T03:58:47;101266.53;;;12.00;58.85
19736;BME280;32064;49.310;8.646;2023-04-09T04:01:13;101270.03;;;12.00;58.09
19736;BME280;32064;49.310;8.646;2023-04-09T04:03:39;101262.97;;;12.01;58.16
19736;BME280;32064;49.310;8.646;2023-04-09T04:06:04;101270.97;;;11.99;59.78
19736;BME280;32064;49.310;8.646;2023-04-09T04:08:30;101265.81;;;11.98;58.33
19736;BME280;32064;49.310;8.646;2023-04-09T04:10:55;101261.94;;;11.89;59.34
19736;BME280;32064;49.310;8.646;2023-04-09T04:13:26;101261.94;;;11.89;58.99
19736;BME280;32064;49.310;8.646;2023-04-09T04:15:52;101262.03;;;11.87;58.73
19736;BME280;32064;49.310;8.646;2023-04-09T04:18:17;101258.63;;;11.85;60.59
19736;BME280;32064;49.310;8.646;2023-04-09T04:20:43;101257.19;;;11.80;59.58
19736;BME280;32064;49.310;8.646;2023-04-09T04:23:08;101266.03;;;11.79;59.86
19736;BME280;32064;49.310;8.646;2023-04-09T04:25:33;101263.41;;;11.79;59.61
19736;BME280;32064;49.310;8.646;2023-04-09T04:27:59;101263.47;;;11.77;59.83
19736;BME280;32064;49.310;8.646;2023-04-09T04:30:24;101262.00;;;11.73;59.27
19736;BME280;32064;49.310;8.646;2023-04-09T04:32:50;101269.91;;;11.73;60.65
19736;BME280;32064;49.310;8.646;2023-04-09T04:35:18;101265.66;;;11.71;61.12
19736;BME280;32064;49.310;8.646;2023-04-09T04:37:43;101265.75;;;11.69;59.07
19736;BME280;32064;49.310;8.646;2023-04-09T04:40:09;101266.03;;;11.64;59.27
19736;BME280;32064;49.310;8.646;2023-04-09T04:42:34;101272.16;;;11.65;60.05
19736;BME280;32064;49.310;8.646;2023-04-09T04:45:00;101277.22;;;11.68;60.23
19736;BME280;32064;49.310;8.646;2023-04-09T04:47:25;101280.06;;;11.65;59.12
19736;BME280;32064;49.310;8.646;2023-04-09T04:49:51;101277.41;;;11.65;59.97
19736;BME280;32064;49.310;8.646;2023-04-09T04:52:16;101273.38;;;11.59;59.73
19736;BME280;32064;49.310;8.646;2023-04-09T04:54:42;101279.66;;;11.57;59.34
19736;BME280;32064;49.310;8.646;2023-04-09T04:57:07;101278.81;;;11.56;60.66
19736;BME280;32064;49.310;8.646;2023-04-09T04:59:36;101284.34;;;11.52;60.79
19736;BME280;32064;49.310;8.646;2023-04-09T05:02:01;101273.28;;;11.46;60.92
19736;BME280;32064;49.310;8.646;2023-04-09T05:04:26;101284.66;;;11.47;59.91
19736;BME280;32064;49.310;8.646;2023-04-09T05:06:52;101284.53;;;11.49;59.62
19736;BME280;32064;49.310;8.646;2023-04-09T05:09:17;101290.84;;;11.46;61.73
19736;BME280;32064;49.310;8.646;2023-04-09T05:11:43;101285.69;;;11.44;60.14
19736;BME280;32064;49.310;8.646;2023-04-09T05:14:08;101283.88;;;11.45;61.92
19736;BME280;32064;49.310;8.646;2023-04-09T05:16:33;101288.22;;;11.46;61.03
19736;BME280;32064;49.310;8.646;2023-04-09T05:18:59;101281.91;;;11.49;61.28
19736;BME280;32064;49.310;8.646;2023-04-09T05:21:24;101282.59;;;11.52;59.75
19736;BME280;32064;49.310;8.646;2023-04-09T05:23:50;101286.81;;;11.55;60.77
19736;BME280;32064;49.310;8.646;2023-04-09T05:26:15;101280.63;;;11.56;60.82
19736;BME280;32064;49.310;8.646;2023-04-09T05:28:41;101293.03;;;11.54;60.83
19736;BME280;32064;49.310;8.646;2023-04-09T05:31:06;101284.94;;;11.57;60.60
19736;BME280;32064;49.310;8.646;2023-04-09T05:33:37;101298.78;;;11.60;60.82
19736;BME280;32064;49.310;8.646;2023-04-09T05:36:03;101283.91;;;11.59;61.10
19736;BME280;32064;49.310;8.646;2023-04-09T05:38:29;101291.06;;;11.57;60.25
19736;BME280;32064;49.310;8.646;2023-04-09T05:40:54;101290.88;;;11.60;60.96
19736;BME280;32064;49.310;8.646;2023-04-09T05:43:19;101295.78;;;11.66;59.92
19736;BME280;32064;49.310;8.646;2023-04-09T05:45:45;101299.09;;;11.70;60.14
19736;BME280;32064;49.310;8.646;2023-04-09T05:48:10;101289.19;;;11.59;61.38
19736;BME280;32064;49.310;8.646;2023-04-09T05:50:35;101299.09;;;11.70;61.17
19736;BME280;32064;49.310;8.646;2023-04-09T05:53:01;101301.53;;;11.73;61.97
19736;BME280;32064;49.310;8.646;2023-04-09T05:55:26;101293.50;;;11.75;60.95
19736;BME280;32064;49.310;8.646;2023-04-09T05:57:52;101296.72;;;11.80;61.54
19736;BME280;32064;49.310;8.646;2023-04-09T06:00:17;101294.66;;;11.85;61.35
19736;BME280;32064;49.310;8.646;2023-04-09T06:02:43;101291.88;;;11.88;61.14
19736;BME280;32064;49.310;8.646;2023-04-09T06:05:10;101298.19;;;12.00;61.06
19736;BME280;32064;49.310;8.646;2023-04-09T06:07:35;101293.59;;;12.03;60.27
19736;BME280;32064;49.310;8.646;2023-04-09T06:10:01;101292.06;;;12.13;61.64
19736;BME280;32064;49.310;8.646;2023-04-09T06:12:26;101298.16;;;12.28;59.75
19736;BME280;32064;49.310;8.646;2023-04-09T06:14:52;101306.34;;;12.38;60.71
19736;BME280;32064;49.310;8.646;2023-04-09T06:17:17;101308.16;;;12.38;60.39
19736;BME280;32064;49.310;8.646;2023-04-09T06:19:43;101313.69;;;12.47;61.49
19736;BME280;32064;49.310;8.646;2023-04-09T06:22:08;101308.84;;;12.54;60.12
19736;BME280;32064;49.310;8.646;2023-04-09T06:24:35;101312.63;;;12.64;61.12
19736;BME280;32064;49.310;8.646;2023-04-09T06:27:00;101312.41;;;12.67;61.23
19736;BME280;32064;49.310;8.646;2023-04-09T06:29:26;101316.38;;;12.74;58.92
19736;BME280;32064;49.310;8.646;2023-04-09T06:31:51;101313.63;;;12.76;59.02
19736;BME280;32064;49.310;8.646;2023-04-09T06:34:17;101322.94;;;12.81;60.13
19736;BME280;32064;49.310;8.646;2023-04-09T06:36:42;101316.53;;;12.86;59.66
19736;BME280;32064;49.310;8.646;2023-04-09T06:39:08;101316.88;;;12.94;60.04
19736;BME280;32064;49.310;8.646;2023-04-09T06:41:34;101319.59;;;12.92;59.29
19736;BME280;32064;49.310;8.646;2023-04-09T06:43:59;101316.97;;;12.92;60.41
19736;BME280;32064;49.310;8.646;2023-04-09T06:46:25;101320.72;;;13.02;58.84
19736;BME280;32064;49.310;8.646;2023-04-09T06:48:51;101325.09;;;13.16;58.81
19736;BME280;32064;49.310;8.646;2023-04-09T06:51:17;101326.94;;;13.29;59.94
19736;BME280;32064;49.310;8.646;2023-04-09T06:53:42;101325.69;;;13.34;58.57
19736;BME280;32064;49.310;8.646;2023-04-09T06:56:08;101328.66;;;13.42;58.29
19736;BME280;32064;49.310;8.646;2023-04-09T06:58:33;101317.13;;;13.43;58.01
19736;BME280;32064;49.310;8.646;2023-04-09T07:00:58;101322.88;;;13.63;58.38
19736;BME280;32064;49.310;8.646;2023-04-09T07:03:24;101319.50;;;13.86;58.15
19736;BME280;32064;49.310;8.646;2023-04-09T07:05:53;101322.34;;;14.09;57.83
19736;BME280;32064;49.310;8.646;2023-04-09T07:08:18;101328.03;;;14.28;57.49
19736;BME280;32064;49.310;8.646;2023-04-09T07:10:44;101328.69;;;14.19;57.56
19736;BME280;32064;49.310;8.646;2023-04-09T07:13:11;101322.75;;;14.28;56.96
19736;BME280;32064;49.310;8.646;2023-04-09T07:15:37;101319.44;;;14.37;56.43
19736;BME280;32064;49.310;8.646;2023-04-09T07:18:02;101329.69;;;14.55;56.87
19736;BME280;32064;49.310;8.646;2023-04-09T07:20:28;101326.63;;;14.61;56.64
19736;BME280;32064;49.310;8.646;2023-04-09T07:22:53;101331.59;;;15.96;53.47
19736;BME280;32064;49.310;8.646;2023-04-09T07:25:19;101335.66;;;16.56;52.05
19736;BME280;32064;49.310;8.646;2023-04-09T07:27:45;101329.78;;;16.41;52.01
19736;BME280;32064;49.310;8.646;2023-04-09T07:30:11;101333.56;;;17.04;52.39
19736;BME280;32064;49.310;8.646;2023-04-09T07:32:36;101337.47;;;17.42;50.16
19736;BME280;32064;49.310;8.646;2023-04-09T07:35:08;101331.00;;;17.03;51.61
19736;BME280;32064;49.310;8.646;2023-04-09T07:37:37;101334.47;;;16.82;52.20
19736;BME280;32064;49.310;8.646;2023-04-09T07:40:03;101341.34;;;16.74;51.00
19736;BME280;32064;49.310;8.646;2023-04-09T07:42:29;101340.03;;;16.79;51.41
19736;BME280;32064;49.310;8.646;2023-04-09T07:44:54;101336.63;;;16.77;51.81
19736;BME280;32064;49.310;8.646;2023-04-09T07:47:21;101343.75;;;16.88;52.04
19736;BME280;32064;49.310;8.646;2023-04-09T07:49:47;101338.69;;;17.17;51.48
19736;BME280;32064;49.310;8.646;2023-04-09T07:52:12;101348.59;;;17.47;50.59
19736;BME280;32064;49.310;8.646;2023-04-09T07:54:38;101343.38;;;17.25;50.86
19736;BME280;32064;49.310;8.646;2023-04-09T07:57:04;101338.97;;;17.03;51.84
19736;BME280;32064;49.310;8.646;2023-04-09T07:59:31;101350.13;;;16.97;51.34
19736;BME280;32064;49.310;8.646;2023-04-09T08:01:56;101355.75;;;17.03;50.40
19736;BME280;32064;49.310;8.646;2023-04-09T08:04:22;101343.16;;;16.85;51.37
19736;BME280;32064;49.310;8.646;2023-04-09T08:06:47;101352.06;;;16.83;50.78
19736;BME280;32064;49.310;8.646;2023-04-09T08:09:16;101342.28;;;16.84;51.03
19736;BME280;32064;49.310;8.646;2023-04-09T08:11:42;101344.09;;;16.83;52.48
19736;BME280;32064;49.310;8.646;2023-04-09T08:14:13;101346.44;;;16.77;51.48
19736;BME280;32064;49.310;8.646;2023-04-09T08:16:39;101360.81;;;16.52;51.56
19736;BME280;32064;49.310;8.646;2023-04-09T08:19:06;101362.47;;;16.87;50.58
19736;BME280;32064;49.310;8.646;2023-04-09T08:21:32;101364.28;;;17.50;50.83
19736;BME280;32064;49.310;8.646;2023-04-09T08:23:57;101360.53;;;20.22;46.18
19736;BME280;32064;49.310;8.646;2023-04-09T08:26:28;101357.59;;;19.68;46.88
19736;BME280;32064;49.310;8.646;2023-04-09T08:28:54;101363.13;;;22.20;42.66
19736;BME280;32064;49.310;8.646;2023-04-09T08:31:19;101356.25;;;23.84;39.96
19736;BME280;32064;49.310;8.646;2023-04-09T08:33:45;101354.88;;;24.52;39.45
19736;BME280;32064;49.310;8.646;2023-04-09T08:36:11;101357.44;;;25.31;38.19
19736;BME280;32064;49.310;8.646;2023-04-09T08:38:36;101354.19;;;25.73;37.72
19736;BME280;32064;49.310;8.646;2023-04-09T08:41:02;101356.72;;;26.49;36.62
19736;BME280;32064;49.310;8.646;2023-04-09T08:43:29;101360.00;;;26.15;36.69
19736;BME280;32064;49.310;8.646;2023-04-09T08:45:56;101367.50;;;23.80;40.25
19736;BME280;32064;49.310;8.646;2023-04-09T08:48:23;101363.16;;;24.74;39.02
19736;BME280;32064;49.310;8.646;2023-04-09T08:50:49;101363.75;;;25.99;36.60
19736;BME280;32064;49.310;8.646;2023-04-09T08:53:16;101361.28;;;26.63;35.67
19736;BME280;32064;49.310;8.646;2023-04-09T08:55:45;101358.88;;;27.12;35.08
19736;BME280;32064;49.310;8.646;2023-04-09T08:58:10;101354.66;;;27.02;34.42
19736;BME280;32064;49.310;8.646;2023-04-09T09:00:36;101365.72;;;27.07;34.64
19736;BME280;32064;49.310;8.646;2023-04-09T09:03:03;101357.91;;;26.76;35.09
19736;BME280;32064;49.310;8.646;2023-04-09T09:05:36;101358.94;;;27.61;32.96
19736;BME280;32064;49.310;8.646;2023-04-09T09:08:02;101350.16;;;27.09;33.05
19736;BME280;32064;49.310;8.646;2023-04-09T09:10:44;101364.94;;;27.57;33.15
19736;BME280;32064;49.310;8.646;2023-04-09T09:13:17;101368.59;;;26.18;34.28
19736;BME280;32064;49.310;8.646;2023-04-09T09:15:44;101360.28;;;27.44;32.64
19736;BME280;32064;49.310;8.646;2023-04-09T09:18:11;101359.59;;;26.99;33.06
19736;BME280;32064;49.310;8.646;2023-04-09T09:20:37;101358.13;;;26.01;33.15
19736;BME280;32064;49.310;8.646;2023-04-09T09:23:02;101359.34;;;25.45;33.94
19736;BME280;32064;49.310;8.646;2023-04-09T09:25:28;101355.69;;;27.23;31.88
19736;BME280;32064;49.310;8.646;2023-04-09T09:28:06;101345.06;;;27.43;31.66
19736;BME280;32064;49.310;8.646;2023-04-09T09:30:31;101362.69;;;25.85;32.98
19736;BME280;32064;49.310;8.646;2023-04-09T09:33:06;101353.63;;;24.94;33.32
19736;BME280;32064;49.310;8.646;2023-04-09T09:35:53;101358.63;;;24.35;33.66
19736;BME280;32064;49.310;8.646;2023-04-09T09:38:19;101356.56;;;23.32;35.79
19736;BME280;32064;49.310;8.646;2023-04-09T09:40:45;101350.44;;;25.14;33.29
19736;BME280;32064;49.310;8.646;2023-04-09T09:43:14;101350.41;;;23.72;34.70
19736;BME280;32064;49.310;8.646;2023-04-09T09:45:40;101355.63;;;22.74;35.02
19736;BME280;32064;49.310;8.646;2023-04-09T09:48:06;101353.03;;;23.23;34.72
19736;BME280;32064;49.310;8.646;2023-04-09T09:50:33;101352.47;;;22.87;35.10
19736;BME280;32064;49.310;8.646;2023-04-09T09:53:04;101355.53;;;22.15;35.13
19736;BME280;32064;49.310;8.646;2023-04-09T09:55:35;101358.53;;;22.47;35.07
19736;BME280;32064;49.310;8.646;2023-04-09T09:58:07;101354.06;;;25.06;32.44
19736;BME280;32064;49.310;8.646;2023-04-09T10:00:38;101346.56;;;25.62;32.01
19736;BME280;32064;49.310;8.646;2023-04-09T10:03:14;101341.88;;;26.09;30.07
19736;BME280;32064;49.310;8.646;2023-04-09T10:05:44;101339.50;;;24.92;32.85
19736;BME280;32064;49.310;8.646;2023-04-09T10:08:11;101342.50;;;26.55;30.59
19736;BME280;32064;49.310;8.646;2023-04-09T10:10:38;101338.97;;;27.34;29.63
19736;BME280;32064;49.310;8.646;2023-04-09T10:13:08;101349.31;;;28.08;28.59
19736;BME280;32064;49.310;8.646;2023-04-09T10:15:37;101342.84;;;29.19;28.96
19736;BME280;32064;49.310;8.646;2023-04-09T10:18:03;101329.22;;;28.85;28.12
19736;BME280;32064;49.310;8.646;2023-04-09T10:20:37;101342.34;;;26.78;28.60
19736;BME280;32064;49.310;8.646;2023-04-09T10:23:32;101335.38;;;25.27;30.61
19736;BME280;32064;49.310;8.646;2023-04-09T10:26:01;101334.34;;;24.51;32.66
19736;BME280;32064;49.310;8.646;2023-04-09T10:28:27;101325.66;;;23.85;32.25
19736;BME280;32064;49.310;8.646;2023-04-09T10:30:52;101332.06;;;23.02;33.92
19736;BME280;32064;49.310;8.646;2023-04-09T10:33:22;101324.13;;;22.76;33.46
19736;BME280;32064;49.310;8.646;2023-04-09T10:35:51;101321.75;;;22.73;33.36
19736;BME280;32064;49.310;8.646;2023-04-09T10:38:44;101311.47;;;22.52;33.76
19736;BME280;32064;49.310;8.646;2023-04-09T10:41:21;101321.09;;;22.79;33.06
19736;BME280;32064;49.310;8.646;2023-04-09T10:43:47;101311.72;;;22.33;34.12
19736;BME280;32064;49.310;8.646;2023-04-09T10:46:30;101310.47;;;21.85;33.79
19736;BME280;32064;49.310;8.646;2023-04-09T10:51:38;101310.91;;;21.46;34.07
19736;BME280;32064;49.310;8.646;2023-04-09T10:59:33;101303.00;;;21.26;34.23
19736;BME280;32064;49.310;8.646;2023-04-09T11:01:58;101308.50;;;21.25;34.13
19736;BME280;32064;49.310;8.646;2023-04-09T11:04:34;101300.28;;;21.62;33.90
19736;BME280;32064;49.310;8.646;2023-04-09T11:07:03;101295.09;;;20.81;34.17
19736;BME280;32064;49.310;8.646;2023-04-09T11:09:33;101295.00;;;20.73;34.60
19736;BME280;32064;49.310;8.646;2023-04-09T11:11:59;101301.19;;;20.46;33.99
19736;BME280;32064;49.310;8.646;2023-04-09T11:14:26;101291.69;;;20.33;34.92
19736;BME280;32064;49.310;8.646;2023-04-09T11:16:51;101296.88;;;20.07;35.43
19736;BME280;32064;49.310;8.646;2023-04-09T11:19:19;101300.59;;;19.96;35.07
19736;BME280;32064;49.310;8.646;2023-04-09T11:21:46;101287.88;;;19.42;34.80
19736;BME280;32064;49.310;8.646;2023-04-09T11:24:13;101297.03;;;19.49;34.25
19736;BME280;32064;49.310;8.646;2023-04-09T11:26:38;101287.50;;;19.27;34.92
19736;BME280;32064;49.310;8.646;2023-04-09T11:29:05;101297.19;;;19.38;35.11
19736;BME280;32064;49.310;8.646;2023-04-09T11:31:32;101292.25;;;19.43;34.60
19736;BME280;32064;49.310;8.646;2023-04-09T11:33:58;101288.75;;;19.33;34.82
19736;BME280;32064;49.310;8.646;2023-04-09T11:36:23;101292.09;;;19.73;34.89
19736;BME280;32064;49.310;8.646;2023-04-09T11:38:48;101286.13;;;19.89;34.15
19736;BME280;32064;49.310;8.646;2023-04-09T11:41:15;101285.31;;;19.79;33.63
19736;BME280;32064;49.310;8.646;2023-04-09T11:43:41;101287.22;;;19.96;34.55
19736;BME280;32064;49.310;8.646;2023-04-09T11:46:06;101280.75;;;19.99;34.19
19736;BME280;32064;49.310;8.646;2023-04-09T11:48:33;101276.72;;;19.85;33.69
19736;BME280;32064;49.310;8.646;2023-04-09T11:50:58;101282.13;;;19.46;33.19
19736;BME280;32064;49.310;8.646;2023-04-09T11:53:29;101284.72;;;19.85;34.16
19736;BME280;32064;49.310;8.646;2023-04-09T11:55:55;101290.63;;;19.89;34.41
19736;BME280;32064;49.310;8.646;2023-04-09T11:58:24;101287.03;;;19.61;34.45
19736;BME280;32064;49.310;8.646;2023-04-09T12:00:54;101291.81;;;19.67;33.94
19736;BME280;32064;49.310;8.646;2023-04-09T12:03:26;101288.09;;;19.87;33.75
19736;BME280;32064;49.310;8.646;2023-04-09T12:05:52;101289.97;;;19.77;34.69
19736;BME280;32064;49.310;8.646;2023-04-09T12:08:21;101281.00;;;20.06;34.05
19736;BME280;32064;49.310;8.646;2023-04-09T12:10:47;101276.56;;;20.24;33.54
19736;BME280;32064;49.310;8.646;2023-04-09T12:13:13;101286.44;;;20.14;33.44
19736;BME280;32064;49.310;8.646;2023-04-09T12:15:41;101281.63;;;20.45;34.25
19736;BME280;32064;49.310;8.646;2023-04-09T12:18:11;101278.94;;;20.45;34.41
19736;BME280;32064;49.310;8.646;2023-04-09T12:20:42;101277.28;;;20.44;34.46
19736;BME280;32064;49.310;8.646;2023-04-09T12:23:09;101278.25;;;20.15;34.18
19736;BME280;32064;49.310;8.646;2023-04-09T12:25:36;101264.81;;;20.07;34.07
19736;BME280;32064;49.310;8.646;2023-04-09T12:28:03;101274.19;;;19.84;34.28
19736;BME280;32064;49.310;8.646;2023-04-09T12:30:29;101266.28;;;19.92;33.96
19736;BME280;32064;49.310;8.646;2023-04-09T12:32:54;101268.13;;;19.91;34.23
19736;BME280;32064;49.310;8.646;2023-04-09T12:35:21;101268.19;;;19.72;34.73
19736;BME280;32064;49.310;8.646;2023-04-09T12:37:47;101265.53;;;19.52;34.45
19736;BME280;32064;49.310;8.646;2023-04-09T12:40:12;101258.38;;;20.28;33.67
19736;BME280;32064;49.310;8.646;2023-04-09T12:42:42;101269.16;;;20.81;33.34
19736;BME280;32064;49.310;8.646;2023-04-09T12:45:08;101259.00;;;20.39;33.68
19736;BME280;32064;49.310;8.646;2023-04-09T12:47:34;101246.69;;;20.56;33.90
19736;BME280;32064;49.310;8.646;2023-04-09T12:50:00;101245.94;;;20.82;33.59
19736;BME280;32064;49.310;8.646;2023-04-09T12:52:26;101253.09;;;20.99;33.59
19736;BME280;32064;49.310;8.646;2023-04-09T12:54:51;101230.66;;;21.18;33.25
19736;BME280;32064;49.310;8.646;2023-04-09T12:57:17;101235.53;;;21.41;32.92
19736;BME280;32064;49.310;8.646;2023-04-09T12:59:42;101237.69;;;21.63;33.00
19736;BME280;32064;49.310;8.646;2023-04-09T13:02:08;101237.50;;;21.65;32.44
19736;BME280;32064;49.310;8.646;2023-04-09T13:04:33;101230.50;;;21.64;31.25
19736;BME280;32064;49.310;8.646;2023-04-09T13:06:58;101224.06;;;21.83;31.90
19736;BME280;32064;49.310;8.646;2023-04-09T13:09:24;101222.34;;;21.82;32.15